Nipawin Airport
CYBU : now visible

Aeroporto :











RITROVATECI SU...

 
LOGIN :

Iscrizione | Disclaimer

   EN    FR    IT 

 









Sommario :    VFR   VFR Marginale   IFR   IFR Intensivo   IFR Molto Intensivo
Visibilità : 
Base nubi : 
>= 8 km
>= 3000ft
5 / 8 km
1000 / 3000 ft
1500m / 5 km
500 / 1000 ft
800 / 1500m
200 / 500 ft
< 800m
< 200 ft
Simboli :   Temporali  Nebbia  Neve Forte  Precipitazioni Forti  Vento > 20 kt






- Altitudine del aeroporto : 1220 ft


CYBU - Nipawin

ULTIMO METAR :
  • 081319Z AUTO 05009KT 9SM OVC100 17/17 A2950 RMK SLP994 DENSITY ALT 2200FT

METARs OBSOLETI :
  • 081300Z AUTO 04009G15KT 9SM -RA OVC095 17/16 A2951 RMK SLP997 DENSITY ALT 2200FT
  • 081200Z AUTO 04007KT 8SM -RA FEW055 BKN072 OVC087 17/16 A2954 RMK LTNG DIST ALQDS PCPN 5.5MM PAST HR SLP005 DENSITY ALT 2100FT
  • 081157Z AUTO 05007KT 030V100 6SM -RA BR SCT050 BKN070 OVC088 17/16 A2954 RMK LTNG DIST ALQDS SLP006 DENSITY ALT 2100FT
  • 081140Z AUTO 09007KT 070V170 4SM RA BR FEW036 BKN055 OVC071 17/16 A2954 RMK LTNG DIST ALQDS SLP006 DENSITY ALT 2100FT
  • 081118Z AUTO 05011G16KT 9SM -TSRA FEW026 OVC055 17/16 A2953 RMK LTNG DIST NE E SE SLP002 DENSITY ALT 2200FT
  • 081103Z AUTO 08012G20KT 2 1/2SM -TSRA BR FEW019 BKN055 17/16 A2953 RMK LTNG DIST E SE S SLP002 DENSITY ALT 2200FT

TAF N/A
FIR CZWG / America del Nord



MetMap, La meteo Aeronautica in un colpo d'occhio ! - Copyright ORBIFLY Dicembre 2007 - Disclaimer

ORBIFLY MET'MAP TEAM :

Programmazione e sviluppo : Alexandra Zaïnal
Concezione : Baudouin d'Aumeries
Aiuto per la programmazione : Marc-Olivier Méhu
Supporto tecnico e logistico : Manuel Goepfert
Aiuto per la traduzione : Arnaldo La Scala

Contatto : metmap@orbifly.com




FONTI E CREDITI :

   NOAA       Earth
Advisory